sensor_id;sensor_type;location;lat;lon;timestamp;pressure;altitude;pressure_sealevel;temperature;humidity
3434;BME280;1730;41.932;25.548;2023-02-12T00:01:41;100135.56;;;-2.53;100.00
3434;BME280;1730;41.932;25.548;2023-02-12T00:04:07;100156.91;;;-2.59;100.00
3434;BME280;1730;41.932;25.548;2023-02-12T00:06:33;100129.81;;;-2.64;100.00
3434;BME280;1730;41.932;25.548;2023-02-12T00:08:58;100026.09;;;-3.17;100.00
3434;BME280;1730;41.932;25.548;2023-02-12T00:11:27;100056.78;;;-2.63;100.00
3434;BME280;1730;41.932;25.548;2023-02-12T00:13:53;100093.97;;;-2.71;100.00
3434;BME280;1730;41.932;25.548;2023-02-12T00:16:22;100127.53;;;-2.50;100.00
3434;BME280;1730;41.932;25.548;2023-02-12T00:18:51;100156.69;;;-2.53;100.00
3434;BME280;1730;41.932;25.548;2023-02-12T00:21:16;100132.88;;;-2.27;100.00
3434;BME280;1730;41.932;25.548;2023-02-12T00:23:42;100135.84;;;-2.36;100.00
3434;BME280;1730;41.932;25.548;2023-02-12T00:26:13;100129.41;;;-2.53;100.00
3434;BME280;1730;41.932;25.548;2023-02-12T00:28:39;100123.50;;;-2.35;100.00
3434;BME280;1730;41.932;25.548;2023-02-12T00:31:13;100122.63;;;-2.36;100.00
3434;BME280;1730;41.932;25.548;2023-02-12T00:33:39;100114.97;;;-2.18;100.00
3434;BME280;1730;41.932;25.548;2023-02-12T00:36:05;100120.16;;;-2.15;100.00
3434;BME280;1730;41.932;25.548;2023-02-12T00:38:31;100041.50;;;-2.80;100.00
3434;BME280;1730;41.932;25.548;2023-02-12T00:40:56;100124.97;;;-2.27;100.00
3434;BME280;1730;41.932;25.548;2023-02-12T00:43:22;100119.50;;;-2.22;100.00
3434;BME280;1730;41.932;25.548;2023-02-12T00:45:47;100121.69;;;-2.10;100.00
3434;BME280;1730;41.932;25.548;2023-02-12T00:48:13;100111.47;;;-1.94;100.00
3434;BME280;1730;41.932;25.548;2023-02-12T00:50:39;100100.31;;;-2.27;100.00
3434;BME280;1730;41.932;25.548;2023-02-12T00:53:08;100081.84;;;-2.27;100.00
3434;BME280;1730;41.932;25.548;2023-02-12T00:55:33;100101.06;;;-2.23;100.00
3434;BME280;1730;41.932;25.548;2023-02-12T00:57:59;100100.06;;;-2.19;100.00
3434;BME280;1730;41.932;25.548;2023-02-12T01:00:25;100104.66;;;-2.24;100.00
3434;BME280;1730;41.932;25.548;2023-02-12T01:02:51;100104.66;;;-2.01;100.00
3434;BME280;1730;41.932;25.548;2023-02-12T01:05:17;100135.84;;;-2.11;100.00
3434;BME280;1730;41.932;25.548;2023-02-12T01:07:47;99951.34;;;-2.91;100.00
3434;BME280;1730;41.932;25.548;2023-02-12T01:10:13;100089.06;;;-2.07;100.00
3434;BME280;1730;41.932;25.548;2023-02-12T01:12:39;100084.72;;;-2.10;100.00
3434;BME280;1730;41.932;25.548;2023-02-12T01:15:05;100110.41;;;-2.13;100.00
3434;BME280;1730;41.932;25.548;2023-02-12T01:17:30;99938.53;;;-2.77;100.00
3434;BME280;1730;41.932;25.548;2023-02-12T01:19:57;100078.84;;;-1.93;100.00
3434;BME280;1730;41.932;25.548;2023-02-12T01:22:23;100078.47;;;-1.84;100.00
3434;BME280;1730;41.932;25.548;2023-02-12T01:24:48;100070.19;;;-1.75;100.00
3434;BME280;1730;41.932;25.548;2023-02-12T01:27:14;100039.22;;;-1.93;100.00
3434;BME280;1730;41.932;25.548;2023-02-12T01:29:41;100065.28;;;-1.62;100.00
3434;BME280;1730;41.932;25.548;2023-02-12T01:32:09;99627.37;;;-4.15;100.00
3434;BME280;1730;41.932;25.548;2023-02-12T01:34:36;100054.53;;;-1.36;100.00
3434;BME280;1730;41.932;25.548;2023-02-12T01:37:02;99908.22;;;-2.44;100.00
3434;BME280;1730;41.932;25.548;2023-02-12T01:39:27;100056.78;;;-1.70;100.00
3434;BME280;1730;41.932;25.548;2023-02-12T01:41:53;100061.63;;;-1.37;100.00
3434;BME280;1730;41.932;25.548;2023-02-12T01:44:22;99860.34;;;-2.80;100.00
3434;BME280;1730;41.932;25.548;2023-02-12T01:46:54;100054.94;;;-1.45;100.00
3434;BME280;1730;41.932;25.548;2023-02-12T01:51:51;99615.53;;;-3.57;100.00
3434;BME280;1730;41.932;25.548;2023-02-12T01:54:19;100042.91;;;-1.10;100.00
3434;BME280;1730;41.932;25.548;2023-02-12T01:56:46;99736.25;;;-2.55;100.00
3434;BME280;1730;41.932;25.548;2023-02-12T01:59:12;99768.12;;;-2.39;100.00
3434;BME280;1730;41.932;25.548;2023-02-12T02:01:38;100039.69;;;-0.97;100.00
3434;BME280;1730;41.932;25.548;2023-02-12T02:04:11;100037.28;;;-1.03;100.00
3434;BME280;1730;41.932;25.548;2023-02-12T02:06:46;100041.91;;;-0.87;100.00
3434;BME280;1730;41.932;25.548;2023-02-12T02:09:13;100059.56;;;-1.08;100.00
3434;BME280;1730;41.932;25.548;2023-02-12T02:11:39;100038.69;;;-0.94;100.00
3434;BME280;1730;41.932;25.548;2023-02-12T02:14:25;100016.78;;;-0.98;100.00
3434;BME280;1730;41.932;25.548;2023-02-12T02:22:43;100044.50;;;-0.86;100.00
3434;BME280;1730;41.932;25.548;2023-02-12T02:27:57;100043.00;;;-1.13;100.00
3434;BME280;1730;41.932;25.548;2023-02-12T02:33:58;100069.62;;;-0.96;100.00
3434;BME280;1730;41.932;25.548;2023-02-12T02:36:35;100061.69;;;-0.96;100.00
3434;BME280;1730;41.932;25.548;2023-02-12T02:44:54;100059.12;;;-0.98;100.00
3434;BME280;1730;41.932;25.548;2023-02-12T02:47:31;99989.31;;;-1.57;100.00
3434;BME280;1730;41.932;25.548;2023-02-12T02:50:03;100047.84;;;-1.23;100.00
3434;BME280;1730;41.932;25.548;2023-02-12T02:52:44;100059.66;;;-1.10;100.00
3434;BME280;1730;41.932;25.548;2023-02-12T02:55:12;100093.22;;;-1.12;100.00
3434;BME280;1730;41.932;25.548;2023-02-12T02:57:50;100051.91;;;-1.14;100.00
3434;BME280;1730;41.932;25.548;2023-02-12T03:00:37;100006.37;;;-1.88;100.00
3434;BME280;1730;41.932;25.548;2023-02-12T03:03:12;100075.44;;;-1.30;100.00
3434;BME280;1730;41.932;25.548;2023-02-12T03:05:44;99995.09;;;-1.69;100.00
3434;BME280;1730;41.932;25.548;2023-02-12T03:08:15;99870.41;;;-2.44;100.00
3434;BME280;1730;41.932;25.548;2023-02-12T03:11:07;100066.22;;;-1.42;100.00
3434;BME280;1730;41.932;25.548;2023-02-12T03:13:46;100065.50;;;-1.45;100.00
3434;BME280;1730;41.932;25.548;2023-02-12T03:16:26;100062.50;;;-1.81;100.00
3434;BME280;1730;41.932;25.548;2023-02-12T03:18:57;100054.84;;;-1.65;100.00
3434;BME280;1730;41.932;25.548;2023-02-12T03:21:31;100055.75;;;-1.66;100.00
3434;BME280;1730;41.932;25.548;2023-02-12T03:26:39;100065.75;;;-1.74;100.00
3434;BME280;1730;41.932;25.548;2023-02-12T03:29:06;99784.16;;;-3.82;100.00
3434;BME280;1730;41.932;25.548;2023-02-12T03:37:08;99971.75;;;-2.25;100.00
3434;BME280;1730;41.932;25.548;2023-02-12T03:42:21;100069.44;;;-2.02;100.00
3434;BME280;1730;41.932;25.548;2023-02-12T03:50:08;100064.72;;;-2.15;100.00
3434;BME280;1730;41.932;25.548;2023-02-12T03:52:35;100035.22;;;-2.51;100.00
3434;BME280;1730;41.932;25.548;2023-02-12T03:55:02;99451.81;;;-5.82;100.00
3434;BME280;1730;41.932;25.548;2023-02-12T03:57:32;100073.59;;;-2.18;100.00
3434;BME280;1730;41.932;25.548;2023-02-12T04:00:13;100050.28;;;-2.07;100.00
3434;BME280;1730;41.932;25.548;2023-02-12T04:02:39;99989.59;;;-2.32;100.00
3434;BME280;1730;41.932;25.548;2023-02-12T04:05:14;100038.97;;;-2.10;100.00
3434;BME280;1730;41.932;25.548;2023-02-12T04:07:40;100013.81;;;-2.44;100.00
3434;BME280;1730;41.932;25.548;2023-02-12T04:10:06;100051.06;;;-2.51;100.00
3434;BME280;1730;41.932;25.548;2023-02-12T04:15:52;100042.97;;;-2.47;100.00
3434;BME280;1730;41.932;25.548;2023-02-12T04:18:26;100056.06;;;-2.68;100.00
3434;BME280;1730;41.932;25.548;2023-02-12T04:26:29;100048.38;;;-2.27;100.00
3434;BME280;1730;41.932;25.548;2023-02-12T04:29:15;100028.66;;;-2.16;100.00
3434;BME280;1730;41.932;25.548;2023-02-12T04:31:52;100040.47;;;-2.03;100.00
3434;BME280;1730;41.932;25.548;2023-02-12T04:34:31;99920.84;;;-2.75;100.00
3434;BME280;1730;41.932;25.548;2023-02-12T04:37:20;100038.13;;;-1.44;100.00
3434;BME280;1730;41.932;25.548;2023-02-12T04:39:48;100039.53;;;-1.36;100.00
3434;BME280;1730;41.932;25.548;2023-02-12T04:42:14;99940.78;;;-1.98;100.00
3434;BME280;1730;41.932;25.548;2023-02-12T04:44:42;99989.38;;;-2.02;100.00
3434;BME280;1730;41.932;25.548;2023-02-12T04:47:12;100004.62;;;-1.65;100.00
3434;BME280;1730;41.932;25.548;2023-02-12T04:49:38;99754.06;;;-3.05;100.00
3434;BME280;1730;41.932;25.548;2023-02-12T04:52:04;100078.31;;;-1.36;100.00
3434;BME280;1730;41.932;25.548;2023-02-12T04:54:30;100068.19;;;-1.25;100.00
3434;BME280;1730;41.932;25.548;2023-02-12T04:56:55;100073.63;;;-1.28;100.00
3434;BME280;1730;41.932;25.548;2023-02-12T04:59:20;100065.19;;;-1.16;100.00
3434;BME280;1730;41.932;25.548;2023-02-12T05:01:46;100056.38;;;-1.16;100.00
3434;BME280;1730;41.932;25.548;2023-02-12T05:04:14;99901.19;;;-2.00;100.00
3434;BME280;1730;41.932;25.548;2023-02-12T05:06:41;100074.47;;;-1.06;100.00
3434;BME280;1730;41.932;25.548;2023-02-12T05:09:09;100035.19;;;-1.37;100.00
3434;BME280;1730;41.932;25.548;2023-02-12T05:11:37;100071.34;;;-1.15;100.00
3434;BME280;1730;41.932;25.548;2023-02-12T05:14:02;99953.47;;;-1.64;100.00
3434;BME280;1730;41.932;25.548;2023-02-12T05:16:28;100073.25;;;-0.77;100.00
3434;BME280;1730;41.932;25.548;2023-02-12T05:18:53;99938.41;;;-1.84;100.00
3434;BME280;1730;41.932;25.548;2023-02-12T05:21:19;100076.81;;;-1.20;100.00
3434;BME280;1730;41.932;25.548;2023-02-12T05:23:44;100085.94;;;-0.85;100.00
3434;BME280;1730;41.932;25.548;2023-02-12T05:26:16;100065.69;;;-0.66;100.00
3434;BME280;1730;41.932;25.548;2023-02-12T05:28:42;100074.00;;;-0.53;100.00
3434;BME280;1730;41.932;25.548;2023-02-12T05:31:16;100077.31;;;-0.29;100.00
3434;BME280;1730;41.932;25.548;2023-02-12T05:33:43;100082.56;;;-0.48;100.00
3434;BME280;1730;41.932;25.548;2023-02-12T05:36:13;100073.91;;;-0.52;100.00
3434;BME280;1730;41.932;25.548;2023-02-12T05:38:39;100092.22;;;-0.07;100.00
3434;BME280;1730;41.932;25.548;2023-02-12T05:41:26;99916.75;;;-0.89;100.00
3434;BME280;1730;41.932;25.548;2023-02-12T05:43:52;100132.44;;;-0.37;100.00
3434;BME280;1730;41.932;25.548;2023-02-12T05:46:19;99666.66;;;-2.74;100.00
3434;BME280;1730;41.932;25.548;2023-02-12T05:48:45;100107.78;;;-0.39;100.00
3434;BME280;1730;41.932;25.548;2023-02-12T05:51:19;100012.59;;;-1.03;100.00
3434;BME280;1730;41.932;25.548;2023-02-12T05:53:46;100111.31;;;-0.39;100.00
3434;BME280;1730;41.932;25.548;2023-02-12T05:56:19;99979.84;;;-0.60;100.00
3434;BME280;1730;41.932;25.548;2023-02-12T05:58:48;100140.25;;;-0.34;100.00
3434;BME280;1730;41.932;25.548;2023-02-12T06:01:19;100121.66;;;-0.33;100.00
3434;BME280;1730;41.932;25.548;2023-02-12T06:03:45;100123.56;;;-0.36;100.00
3434;BME280;1730;41.932;25.548;2023-02-12T06:06:10;99866.72;;;-2.18;100.00
3434;BME280;1730;41.932;25.548;2023-02-12T06:08:37;100126.19;;;-0.16;100.00
3434;BME280;1730;41.932;25.548;2023-02-12T06:11:05;100128.37;;;-0.26;100.00
3434;BME280;1730;41.932;25.548;2023-02-12T06:13:31;99830.69;;;-1.57;100.00
3434;BME280;1730;41.932;25.548;2023-02-12T06:15:57;100140.53;;;0.00;100.00
3434;BME280;1730;41.932;25.548;2023-02-12T06:18:23;100133.19;;;0.25;100.00
3434;BME280;1730;41.932;25.548;2023-02-12T06:20:49;100131.16;;;0.49;100.00
3434;BME280;1730;41.932;25.548;2023-02-12T06:23:15;99757.03;;;-1.65;100.00
3434;BME280;1730;41.932;25.548;2023-02-12T06:25:41;100135.37;;;0.90;100.00
3434;BME280;1730;41.932;25.548;2023-02-12T06:28:06;100111.53;;;0.53;100.00
3434;BME280;1730;41.932;25.548;2023-02-12T06:30:35;100140.62;;;0.36;100.00
3434;BME280;1730;41.932;25.548;2023-02-12T06:33:00;100159.41;;;0.50;100.00
3434;BME280;1730;41.932;25.548;2023-02-12T06:35:26;99945.31;;;-0.57;100.00
3434;BME280;1730;41.932;25.548;2023-02-12T06:37:52;100134.09;;;0.99;100.00
3434;BME280;1730;41.932;25.548;2023-02-12T06:40:18;100137.72;;;1.15;100.00
3434;BME280;1730;41.932;25.548;2023-02-12T06:42:43;99944.00;;;0.08;100.00
3434;BME280;1730;41.932;25.548;2023-02-12T06:45:09;100148.94;;;0.84;100.00
3434;BME280;1730;41.932;25.548;2023-02-12T06:47:35;100139.00;;;1.07;100.00
3434;BME280;1730;41.932;25.548;2023-02-12T06:50:00;100147.81;;;1.26;100.00
3434;BME280;1730;41.932;25.548;2023-02-12T06:52:26;100149.44;;;0.93;100.00
3434;BME280;1730;41.932;25.548;2023-02-12T06:54:52;100161.78;;;1.29;100.00
3434;BME280;1730;41.932;25.548;2023-02-12T06:57:17;100088.22;;;0.78;100.00
3434;BME280;1730;41.932;25.548;2023-02-12T06:59:43;100170.44;;;1.69;100.00
3434;BME280;1730;41.932;25.548;2023-02-12T07:02:10;99938.41;;;0.14;100.00
3434;BME280;1730;41.932;25.548;2023-02-12T07:04:37;100173.66;;;1.22;100.00
3434;BME280;1730;41.932;25.548;2023-02-12T07:07:03;100165.03;;;1.36;100.00
3434;BME280;1730;41.932;25.548;2023-02-12T07:09:29;100164.94;;;1.89;100.00
3434;BME280;1730;41.932;25.548;2023-02-12T07:11:57;100166.78;;;1.89;100.00
3434;BME280;1730;41.932;25.548;2023-02-12T07:14:23;100161.16;;;2.28;100.00
3434;BME280;1730;41.932;25.548;2023-02-12T07:16:48;99664.91;;;-0.80;100.00
3434;BME280;1730;41.932;25.548;2023-02-12T07:19:13;100164.41;;;2.65;100.00
3434;BME280;1730;41.932;25.548;2023-02-12T07:21:41;99979.03;;;1.53;100.00
3434;BME280;1730;41.932;25.548;2023-02-12T07:24:10;99691.97;;;-0.05;100.00
3434;BME280;1730;41.932;25.548;2023-02-12T07:26:39;99976.97;;;1.91;100.00
3434;BME280;1730;41.932;25.548;2023-02-12T07:29:05;100173.69;;;2.58;100.00
3434;BME280;1730;41.932;25.548;2023-02-12T07:31:30;100010.16;;;1.34;100.00
3434;BME280;1730;41.932;25.548;2023-02-12T07:33:57;100005.56;;;1.70;100.00
3434;BME280;1730;41.932;25.548;2023-02-12T07:36:25;100172.84;;;3.05;100.00
3434;BME280;1730;41.932;25.548;2023-02-12T07:38:52;100167.16;;;3.27;97.08
3434;BME280;1730;41.932;25.548;2023-02-12T07:41:20;100171.91;;;3.22;96.36
3434;BME280;1730;41.932;25.548;2023-02-12T07:43:48;100165.38;;;2.96;95.85
3434;BME280;1730;41.932;25.548;2023-02-12T07:46:23;100163.03;;;3.37;94.96
3434;BME280;1730;41.932;25.548;2023-02-12T07:48:52;99761.75;;;1.11;93.76
3434;BME280;1730;41.932;25.548;2023-02-12T07:51:18;100169.06;;;3.09;97.31
3434;BME280;1730;41.932;25.548;2023-02-12T07:53:43;100198.97;;;3.30;95.38
3434;BME280;1730;41.932;25.548;2023-02-12T07:56:18;100169.78;;;3.58;93.55
3434;BME280;1730;41.932;25.548;2023-02-12T07:58:46;100168.47;;;3.65;92.93
3434;BME280;1730;41.932;25.548;2023-02-12T08:01:17;100159.75;;;4.35;86.52
3434;BME280;1730;41.932;25.548;2023-02-12T08:03:43;100202.78;;;4.01;88.42
3434;BME280;1730;41.932;25.548;2023-02-12T08:06:16;100172.72;;;3.83;86.91
3434;BME280;1730;41.932;25.548;2023-02-12T08:08:42;100153.28;;;3.51;89.98
3434;BME280;1730;41.932;25.548;2023-02-12T08:11:09;100178.50;;;4.05;88.21
3434;BME280;1730;41.932;25.548;2023-02-12T08:13:35;100176.56;;;3.93;88.46
3434;BME280;1730;41.932;25.548;2023-02-12T08:16:06;100149.75;;;3.81;89.94
3434;BME280;1730;41.932;25.548;2023-02-12T08:18:32;100198.03;;;4.06;90.77
3434;BME280;1730;41.932;25.548;2023-02-12T08:21:06;100174.62;;;4.39;89.08
3434;BME280;1730;41.932;25.548;2023-02-12T08:23:33;100183.09;;;4.74;85.54
3434;BME280;1730;41.932;25.548;2023-02-12T08:28:36;100188.56;;;5.28;77.84
3434;BME280;1730;41.932;25.548;2023-02-12T08:31:04;100185.50;;;5.34;76.38
3434;BME280;1730;41.932;25.548;2023-02-12T08:33:30;100185.87;;;5.28;76.20
3434;BME280;1730;41.932;25.548;2023-02-12T08:36:07;100091.94;;;4.52;75.64
3434;BME280;1730;41.932;25.548;2023-02-12T08:38:37;100196.81;;;4.96;72.83
3434;BME280;1730;41.932;25.548;2023-02-12T08:41:09;100197.66;;;5.25;70.30
3434;BME280;1730;41.932;25.548;2023-02-12T08:43:34;100200.22;;;5.54;68.01
3434;BME280;1730;41.932;25.548;2023-02-12T08:46:18;100085.03;;;5.17;67.59
3434;BME280;1730;41.932;25.548;2023-02-12T08:48:44;100206.84;;;5.48;65.89
3434;BME280;1730;41.932;25.548;2023-02-12T08:53:42;100214.66;;;5.51;67.97
3434;BME280;1730;41.932;25.548;2023-02-12T08:56:10;100247.50;;;5.94;67.63
3434;BME280;1730;41.932;25.548;2023-02-12T08:58:36;100179.09;;;5.36;68.16
3434;BME280;1730;41.932;25.548;2023-02-12T09:01:03;100222.72;;;6.17;66.81
3434;BME280;1730;41.932;25.548;2023-02-12T09:03:29;100134.34;;;5.92;65.79
3434;BME280;1730;41.932;25.548;2023-02-12T09:05:54;99978.75;;;5.33;64.75
3434;BME280;1730;41.932;25.548;2023-02-12T09:08:20;100162.00;;;6.18;62.65
3434;BME280;1730;41.932;25.548;2023-02-12T09:10:45;100240.47;;;6.70;62.48
3434;BME280;1730;41.932;25.548;2023-02-12T09:13:12;100234.00;;;6.98;62.74
3434;BME280;1730;41.932;25.548;2023-02-12T09:15:42;100236.75;;;7.22;60.05
3434;BME280;1730;41.932;25.548;2023-02-12T09:18:10;100218.94;;;7.21;58.87
3434;BME280;1730;41.932;25.548;2023-02-12T09:20:38;100127.88;;;7.19;57.67
3434;BME280;1730;41.932;25.548;2023-02-12T09:23:07;100238.13;;;8.11;57.06
3434;BME280;1730;41.932;25.548;2023-02-12T09:25:34;100234.78;;;8.08;54.86
3434;BME280;1730;41.932;25.548;2023-02-12T09:28:02;100087.00;;;7.40;55.00
3434;BME280;1730;41.932;25.548;2023-02-12T09:30:28;100235.81;;;8.18;54.55
3434;BME280;1730;41.932;25.548;2023-02-12T09:32:54;100229.75;;;8.73;53.18
3434;BME280;1730;41.932;25.548;2023-02-12T09:35:20;100235.97;;;8.28;53.44
3434;BME280;1730;41.932;25.548;2023-02-12T09:37:46;100085.72;;;7.91;53.05
3434;BME280;1730;41.932;25.548;2023-02-12T09:43:18;100124.38;;;9.01;50.72
3434;BME280;1730;41.932;25.548;2023-02-12T09:46:02;100110.22;;;8.88;50.56
3434;BME280;1730;41.932;25.548;2023-02-12T09:51:04;100108.53;;;9.30;49.87
3434;BME280;1730;41.932;25.548;2023-02-12T09:53:38;100093.25;;;8.77;50.01
3434;BME280;1730;41.932;25.548;2023-02-12T09:56:12;100237.97;;;9.05;51.00
3434;BME280;1730;41.932;25.548;2023-02-12T09:58:45;100235.88;;;9.42;51.26
3434;BME280;1730;41.932;25.548;2023-02-12T10:01:13;100075.31;;;8.33;50.69
3434;BME280;1730;41.932;25.548;2023-02-12T10:03:40;100249.69;;;9.04;51.45
3434;BME280;1730;41.932;25.548;2023-02-12T10:06:28;100190.28;;;8.85;52.12
3434;BME280;1730;41.932;25.548;2023-02-12T10:09:29;100226.09;;;8.96;51.85
3434;BME280;1730;41.932;25.548;2023-02-12T10:12:03;100236.38;;;9.47;51.52
3434;BME280;1730;41.932;25.548;2023-02-12T10:20:39;100236.75;;;8.98;52.01
3434;BME280;1730;41.932;25.548;2023-02-12T10:23:24;100230.03;;;9.03;52.50
3434;BME280;1730;41.932;25.548;2023-02-12T10:25:53;100227.34;;;9.03;52.79
3434;BME280;1730;41.932;25.548;2023-02-12T10:31:06;100251.53;;;8.81;53.13
3434;BME280;1730;41.932;25.548;2023-02-12T10:33:34;100237.84;;;9.07;52.18
3434;BME280;1730;41.932;25.548;2023-02-12T10:42:04;100219.25;;;9.15;52.51
3434;BME280;1730;41.932;25.548;2023-02-12T10:44:32;100084.09;;;8.46;51.30
3434;BME280;1730;41.932;25.548;2023-02-12T10:46:57;100214.34;;;9.09;52.35
3434;BME280;1730;41.932;25.548;2023-02-12T10:49:24;100215.91;;;9.44;51.96
3434;BME280;1730;41.932;25.548;2023-02-12T10:52:02;99855.56;;;6.80;52.03
3434;BME280;1730;41.932;25.548;2023-02-12T10:57:12;100071.63;;;8.67;50.59
3434;BME280;1730;41.932;25.548;2023-02-12T10:59:41;100220.69;;;9.95;49.83
3434;BME280;1730;41.932;25.548;2023-02-12T11:02:21;100222.44;;;10.49;49.50
3434;BME280;1730;41.932;25.548;2023-02-12T11:04:48;100226.28;;;10.76;46.34
3434;BME280;1730;41.932;25.548;2023-02-12T11:07:14;100227.41;;;10.74;45.89
3434;BME280;1730;41.932;25.548;2023-02-12T11:09:50;100225.88;;;11.11;45.31
3434;BME280;1730;41.932;25.548;2023-02-12T11:12:27;99763.25;;;7.62;45.94
3434;BME280;1730;41.932;25.548;2023-02-12T11:14:57;100053.03;;;9.29;46.26
3434;BME280;1730;41.932;25.548;2023-02-12T11:17:28;100125.28;;;9.66;45.41
3434;BME280;1730;41.932;25.548;2023-02-12T11:20:04;100208.03;;;10.18;45.49
3434;BME280;1730;41.932;25.548;2023-02-12T11:22:35;100238.06;;;10.34;45.78
3434;BME280;1730;41.932;25.548;2023-02-12T11:25:13;100235.69;;;10.20;47.17
3434;BME280;1730;41.932;25.548;2023-02-12T11:27:40;100234.78;;;10.30;47.79
3434;BME280;1730;41.932;25.548;2023-02-12T11:32:34;100253.47;;;10.64;47.98
3434;BME280;1730;41.932;25.548;2023-02-12T11:35:21;100235.34;;;10.75;47.62
3434;BME280;1730;41.932;25.548;2023-02-12T11:37:58;100157.16;;;9.61;48.36
3434;BME280;1730;41.932;25.548;2023-02-12T11:40:32;100086.78;;;9.65;48.35
3434;BME280;1730;41.932;25.548;2023-02-12T11:43:04;100202.81;;;10.67;47.68
3434;BME280;1730;41.932;25.548;2023-02-12T11:45:34;100207.47;;;10.45;47.87
3434;BME280;1730;41.932;25.548;2023-02-12T11:48:01;100239.41;;;10.60;47.68
3434;BME280;1730;41.932;25.548;2023-02-12T11:50:30;100231.75;;;10.65;47.92
3434;BME280;1730;41.932;25.548;2023-02-12T11:53:07;99746.69;;;7.24;48.23
3434;BME280;1730;41.932;25.548;2023-02-12T11:55:39;99998.84;;;8.91;48.47
3434;BME280;1730;41.932;25.548;2023-02-12T11:58:22;100229.66;;;10.48;47.79
3434;BME280;1730;41.932;25.548;2023-02-12T12:06:32;100234.44;;;10.86;47.29
3434;BME280;1730;41.932;25.548;2023-02-12T12:14:26;100240.66;;;11.07;46.84
3434;BME280;1730;41.932;25.548;2023-02-12T12:17:01;100246.41;;;10.72;47.29
3434;BME280;1730;41.932;25.548;2023-02-12T12:20:13;100248.56;;;10.99;46.61
3434;BME280;1730;41.932;25.548;2023-02-12T12:22:45;100247.63;;;10.27;47.24
3434;BME280;1730;41.932;25.548;2023-02-12T12:25:23;100039.81;;;8.94;46.88
3434;BME280;1730;41.932;25.548;2023-02-12T12:27:57;100151.81;;;9.81;46.34
3434;BME280;1730;41.932;25.548;2023-02-12T12:33:14;100260.75;;;10.94;45.97
3434;BME280;1730;41.932;25.548;2023-02-12T12:35:53;100243.69;;;10.93;45.51
3434;BME280;1730;41.932;25.548;2023-02-12T13:09:12;100296.16;;;10.79;46.01
3434;BME280;1730;41.932;25.548;2023-02-12T13:17:09;100304.75;;;11.45;45.84
3434;BME280;1730;41.932;25.548;2023-02-12T13:27:48;100310.53;;;11.10;45.98
3434;BME280;1730;41.932;25.548;2023-02-12T13:30:25;100310.88;;;10.55;46.60
3434;BME280;1730;41.932;25.548;2023-02-12T13:35:34;100314.91;;;10.60;46.98
3434;BME280;1730;41.932;25.548;2023-02-12T13:38:02;100328.41;;;10.49;47.36
3434;BME280;1730;41.932;25.548;2023-02-12T13:40:29;100322.31;;;10.47;47.60
3434;BME280;1730;41.932;25.548;2023-02-12T13:43:06;100359.13;;;10.15;47.53
3434;BME280;1730;41.932;25.548;2023-02-12T13:49:04;100327.78;;;10.25;47.78
3434;BME280;1730;41.932;25.548;2023-02-12T13:51:44;100346.53;;;10.26;47.58
3434;BME280;1730;41.932;25.548;2023-02-12T13:57:18;100351.19;;;10.24;47.89
3434;BME280;1730;41.932;25.548;2023-02-12T13:59:46;100311.63;;;10.57;47.02
3434;BME280;1730;41.932;25.548;2023-02-12T14:04:57;100340.28;;;10.58;46.84
3434;BME280;1730;41.932;25.548;2023-02-12T14:07:49;100374.69;;;10.33;46.89
3434;BME280;1730;41.932;25.548;2023-02-12T14:10:31;100347.91;;;10.53;46.95
3434;BME280;1730;41.932;25.548;2023-02-12T14:13:14;100220.84;;;10.14;46.96
3434;BME280;1730;41.932;25.548;2023-02-12T14:15:55;100360.41;;;10.54;47.28
3434;BME280;1730;41.932;25.548;2023-02-12T14:23:41;100370.06;;;10.88;46.59
3434;BME280;1730;41.932;25.548;2023-02-12T14:26:10;100249.41;;;10.06;46.53
3434;BME280;1730;41.932;25.548;2023-02-12T14:28:50;99907.50;;;8.14;46.31
3434;BME280;1730;41.932;25.548;2023-02-12T14:39:00;100403.72;;;10.73;47.08
3434;BME280;1730;41.932;25.548;2023-02-12T14:41:33;100390.31;;;10.51;47.44
3434;BME280;1730;41.932;25.548;2023-02-12T14:46:49;100395.63;;;10.41;47.63
3434;BME280;1730;41.932;25.548;2023-02-12T14:57:02;100264.75;;;9.29;48.45
3434;BME280;1730;41.932;25.548;2023-02-12T14:59:33;100415.03;;;10.13;48.68
3434;BME280;1730;41.932;25.548;2023-02-12T15:02:03;100414.78;;;9.93;49.13
3434;BME280;1730;41.932;25.548;2023-02-12T15:04:34;100398.72;;;10.03;48.84
3434;BME280;1730;41.932;25.548;2023-02-12T15:07:07;100417.13;;;9.87;49.42
3434;BME280;1730;41.932;25.548;2023-02-12T15:09:51;100422.25;;;9.90;49.27
3434;BME280;1730;41.932;25.548;2023-02-12T15:12:30;100442.19;;;9.87;49.24
3434;BME280;1730;41.932;25.548;2023-02-12T15:15:27;100341.47;;;9.34;49.40
3434;BME280;1730;41.932;25.548;2023-02-12T15:23:44;100457.63;;;9.85;49.53
3434;BME280;1730;41.932;25.548;2023-02-12T15:26:18;100467.63;;;9.50;49.86
3434;BME280;1730;41.932;25.548;2023-02-12T15:28:46;100480.13;;;9.51;50.58
3434;BME280;1730;41.932;25.548;2023-02-12T15:31:15;100481.84;;;9.52;50.25
3434;BME280;1730;41.932;25.548;2023-02-12T15:33:48;100485.63;;;9.49;50.71
3434;BME280;1730;41.932;25.548;2023-02-12T15:36:19;100493.59;;;9.62;50.38
3434;BME280;1730;41.932;25.548;2023-02-12T15:38:56;100392.56;;;9.12;50.25
3434;BME280;1730;41.932;25.548;2023-02-12T15:43:59;100515.91;;;9.29;51.69
3434;BME280;1730;41.932;25.548;2023-02-12T15:46:25;100282.34;;;7.95;51.54
3434;BME280;1730;41.932;25.548;2023-02-12T15:48:51;100526.22;;;9.12;52.18
3434;BME280;1730;41.932;25.548;2023-02-12T15:51:27;100540.59;;;9.23;52.25
3434;BME280;1730;41.932;25.548;2023-02-12T15:53:55;100336.28;;;7.92;52.49
3434;BME280;1730;41.932;25.548;2023-02-12T15:56:23;100549.47;;;9.13;53.12
3434;BME280;1730;41.932;25.548;2023-02-12T15:58:56;100558.56;;;8.99;54.43
3434;BME280;1730;41.932;25.548;2023-02-12T16:01:26;100579.16;;;8.87;55.67
3434;BME280;1730;41.932;25.548;2023-02-12T16:03:55;100567.53;;;8.87;56.15
3434;BME280;1730;41.932;25.548;2023-02-12T16:06:24;100577.69;;;9.07;56.39
3434;BME280;1730;41.932;25.548;2023-02-12T16:11:29;100591.56;;;8.65;60.74
3434;BME280;1730;41.932;25.548;2023-02-12T16:13:59;100590.63;;;8.53;61.65
3434;BME280;1730;41.932;25.548;2023-02-12T16:16:28;100587.88;;;8.29;63.99